sensor_id;sensor_type;location;lat;lon;timestamp;P1;durP1;ratioP1;P2;durP2;ratioP2
52948;SDS011;38812;50.942;3.644;2023-05-07T00:00:58;10.80;;;2.83;;
52948;SDS011;38812;50.942;3.644;2023-05-07T00:03:24;10.10;;;3.20;;
52948;SDS011;38812;50.942;3.644;2023-05-07T00:05:51;12.85;;;2.80;;
52948;SDS011;38812;50.942;3.644;2023-05-07T00:08:17;7.10;;;2.80;;
52948;SDS011;38812;50.942;3.644;2023-05-07T00:10:43;11.82;;;3.08;;
52948;SDS011;38812;50.942;3.644;2023-05-07T00:13:09;5.97;;;3.08;;
52948;SDS011;38812;50.942;3.644;2023-05-07T00:15:35;9.52;;;3.05;;
52948;SDS011;38812;50.942;3.644;2023-05-07T00:18:00;8.43;;;3.58;;
52948;SDS011;38812;50.942;3.644;2023-05-07T00:20:26;14.30;;;3.75;;
52948;SDS011;38812;50.942;3.644;2023-05-07T00:22:51;12.27;;;3.95;;
52948;SDS011;38812;50.942;3.644;2023-05-07T00:25:17;15.30;;;3.28;;
52948;SDS011;38812;50.942;3.644;2023-05-07T00:27:44;8.10;;;3.58;;
52948;SDS011;38812;50.942;3.644;2023-05-07T00:30:10;15.95;;;4.18;;
52948;SDS011;38812;50.942;3.644;2023-05-07T00:32:36;11.32;;;3.22;;
52948;SDS011;38812;50.942;3.644;2023-05-07T00:35:01;8.73;;;2.70;;
52948;SDS011;38812;50.942;3.644;2023-05-07T00:37:27;11.38;;;4.28;;
52948;SDS011;38812;50.942;3.644;2023-05-07T00:39:52;7.60;;;3.47;;
52948;SDS011;38812;50.942;3.644;2023-05-07T00:42:18;8.95;;;3.10;;
52948;SDS011;38812;50.942;3.644;2023-05-07T00:44:43;9.23;;;3.47;;
52948;SDS011;38812;50.942;3.644;2023-05-07T00:47:09;10.70;;;3.28;;
52948;SDS011;38812;50.942;3.644;2023-05-07T00:49:38;10.65;;;3.05;;
52948;SDS011;38812;50.942;3.644;2023-05-07T00:52:07;9.55;;;2.88;;
52948;SDS011;38812;50.942;3.644;2023-05-07T00:54:34;12.13;;;4.00;;
52948;SDS011;38812;50.942;3.644;2023-05-07T00:57:00;9.27;;;3.67;;
52948;SDS011;38812;50.942;3.644;2023-05-07T00:59:27;10.30;;;4.00;;
52948;SDS011;38812;50.942;3.644;2023-05-07T01:01:53;16.98;;;5.88;;
52948;SDS011;38812;50.942;3.644;2023-05-07T01:04:18;11.05;;;3.90;;
52948;SDS011;38812;50.942;3.644;2023-05-07T01:06:44;11.55;;;3.53;;
52948;SDS011;38812;50.942;3.644;2023-05-07T01:09:10;9.88;;;4.25;;
52948;SDS011;38812;50.942;3.644;2023-05-07T01:11:36;8.27;;;3.58;;
52948;SDS011;38812;50.942;3.644;2023-05-07T01:14:03;16.55;;;4.15;;
52948;SDS011;38812;50.942;3.644;2023-05-07T01:16:28;12.50;;;3.30;;
52948;SDS011;38812;50.942;3.644;2023-05-07T01:18:54;15.23;;;4.13;;
52948;SDS011;38812;50.942;3.644;2023-05-07T01:21:20;11.27;;;3.00;;
52948;SDS011;38812;50.942;3.644;2023-05-07T01:23:51;12.90;;;3.33;;
52948;SDS011;38812;50.942;3.644;2023-05-07T01:26:18;11.23;;;3.25;;
52948;SDS011;38812;50.942;3.644;2023-05-07T01:28:44;12.70;;;3.33;;
52948;SDS011;38812;50.942;3.644;2023-05-07T01:31:10;6.57;;;2.97;;
52948;SDS011;38812;50.942;3.644;2023-05-07T01:33:38;7.75;;;2.83;;
52948;SDS011;38812;50.942;3.644;2023-05-07T01:36:07;8.95;;;2.78;;
52948;SDS011;38812;50.942;3.644;2023-05-07T01:38:34;6.25;;;2.90;;
52948;SDS011;38812;50.942;3.644;2023-05-07T01:41:01;6.13;;;3.13;;
52948;SDS011;38812;50.942;3.644;2023-05-07T01:43:28;7.35;;;2.90;;
52948;SDS011;38812;50.942;3.644;2023-05-07T01:45:54;8.68;;;3.50;;
52948;SDS011;38812;50.942;3.644;2023-05-07T01:48:20;8.05;;;2.72;;
52948;SDS011;38812;50.942;3.644;2023-05-07T01:50:46;8.30;;;3.30;;
52948;SDS011;38812;50.942;3.644;2023-05-07T01:53:12;7.28;;;2.80;;
52948;SDS011;38812;50.942;3.644;2023-05-07T01:55:38;6.68;;;3.28;;
52948;SDS011;38812;50.942;3.644;2023-05-07T01:58:03;8.02;;;3.17;;
52948;SDS011;38812;50.942;3.644;2023-05-07T02:00:29;7.63;;;3.30;;
52948;SDS011;38812;50.942;3.644;2023-05-07T02:02:55;7.75;;;3.25;;
52948;SDS011;38812;50.942;3.644;2023-05-07T02:05:20;8.50;;;2.78;;
52948;SDS011;38812;50.942;3.644;2023-05-07T02:07:46;9.13;;;3.65;;
52948;SDS011;38812;50.942;3.644;2023-05-07T02:10:11;16.52;;;4.28;;
52948;SDS011;38812;50.942;3.644;2023-05-07T02:12:37;13.40;;;3.00;;
52948;SDS011;38812;50.942;3.644;2023-05-07T02:15:02;7.93;;;3.40;;
52948;SDS011;38812;50.942;3.644;2023-05-07T02:17:28;11.02;;;3.15;;
52948;SDS011;38812;50.942;3.644;2023-05-07T02:19:56;9.77;;;3.63;;
52948;SDS011;38812;50.942;3.644;2023-05-07T02:22:22;9.57;;;3.45;;
52948;SDS011;38812;50.942;3.644;2023-05-07T02:24:47;9.48;;;3.38;;
52948;SDS011;38812;50.942;3.644;2023-05-07T02:27:12;11.82;;;3.17;;
52948;SDS011;38812;50.942;3.644;2023-05-07T02:29:38;12.20;;;3.88;;
52948;SDS011;38812;50.942;3.644;2023-05-07T02:32:04;11.35;;;3.78;;
52948;SDS011;38812;50.942;3.644;2023-05-07T02:34:29;10.93;;;3.72;;
52948;SDS011;38812;50.942;3.644;2023-05-07T02:36:55;9.63;;;3.67;;
52948;SDS011;38812;50.942;3.644;2023-05-07T02:39:20;9.70;;;3.40;;
52948;SDS011;38812;50.942;3.644;2023-05-07T02:41:46;9.38;;;3.92;;
52948;SDS011;38812;50.942;3.644;2023-05-07T02:44:11;12.57;;;3.08;;
52948;SDS011;38812;50.942;3.644;2023-05-07T02:46:36;11.27;;;3.47;;
52948;SDS011;38812;50.942;3.644;2023-05-07T02:49:02;8.43;;;3.22;;
52948;SDS011;38812;50.942;3.644;2023-05-07T02:51:27;6.38;;;2.63;;
52948;SDS011;38812;50.942;3.644;2023-05-07T02:53:52;8.32;;;2.78;;
52948;SDS011;38812;50.942;3.644;2023-05-07T02:56:18;6.35;;;3.25;;
52948;SDS011;38812;50.942;3.644;2023-05-07T02:58:43;7.63;;;3.03;;
52948;SDS011;38812;50.942;3.644;2023-05-07T03:01:08;7.38;;;3.20;;
52948;SDS011;38812;50.942;3.644;2023-05-07T03:03:34;10.07;;;3.40;;
52948;SDS011;38812;50.942;3.644;2023-05-07T03:06:00;9.93;;;3.10;;
52948;SDS011;38812;50.942;3.644;2023-05-07T03:08:26;10.88;;;4.22;;
52948;SDS011;38812;50.942;3.644;2023-05-07T03:10:51;15.38;;;4.15;;
52948;SDS011;38812;50.942;3.644;2023-05-07T03:13:17;13.23;;;4.15;;
52948;SDS011;38812;50.942;3.644;2023-05-07T03:15:42;17.08;;;3.85;;
52948;SDS011;38812;50.942;3.644;2023-05-07T03:18:08;12.00;;;3.83;;
52948;SDS011;38812;50.942;3.644;2023-05-07T03:20:33;11.95;;;4.03;;
52948;SDS011;38812;50.942;3.644;2023-05-07T03:22:59;7.75;;;3.17;;
52948;SDS011;38812;50.942;3.644;2023-05-07T03:25:25;11.05;;;4.00;;
52948;SDS011;38812;50.942;3.644;2023-05-07T03:27:50;12.68;;;4.28;;
52948;SDS011;38812;50.942;3.644;2023-05-07T03:30:15;11.45;;;4.03;;
52948;SDS011;38812;50.942;3.644;2023-05-07T03:32:41;8.90;;;3.72;;
52948;SDS011;38812;50.942;3.644;2023-05-07T03:35:06;9.32;;;4.15;;
52948;SDS011;38812;50.942;3.644;2023-05-07T03:37:32;6.57;;;4.05;;
52948;SDS011;38812;50.942;3.644;2023-05-07T03:39:58;18.67;;;3.80;;
52948;SDS011;38812;50.942;3.644;2023-05-07T03:42:23;12.00;;;3.38;;
52948;SDS011;38812;50.942;3.644;2023-05-07T03:44:49;12.25;;;3.83;;
52948;SDS011;38812;50.942;3.644;2023-05-07T03:47:14;11.10;;;3.97;;
52948;SDS011;38812;50.942;3.644;2023-05-07T03:49:40;8.85;;;4.50;;
52948;SDS011;38812;50.942;3.644;2023-05-07T03:52:05;7.90;;;3.20;;
52948;SDS011;38812;50.942;3.644;2023-05-07T03:54:31;11.50;;;3.53;;
52948;SDS011;38812;50.942;3.644;2023-05-07T03:56:56;14.65;;;3.67;;
52948;SDS011;38812;50.942;3.644;2023-05-07T03:59:22;8.18;;;3.78;;
52948;SDS011;38812;50.942;3.644;2023-05-07T04:01:47;8.35;;;4.15;;
52948;SDS011;38812;50.942;3.644;2023-05-07T04:04:13;12.57;;;3.97;;
52948;SDS011;38812;50.942;3.644;2023-05-07T04:06:39;9.95;;;3.65;;
52948;SDS011;38812;50.942;3.644;2023-05-07T04:09:05;9.93;;;3.22;;
52948;SDS011;38812;50.942;3.644;2023-05-07T04:11:31;8.73;;;3.65;;
52948;SDS011;38812;50.942;3.644;2023-05-07T04:13:56;10.45;;;3.90;;
52948;SDS011;38812;50.942;3.644;2023-05-07T04:16:22;16.50;;;4.43;;
52948;SDS011;38812;50.942;3.644;2023-05-07T04:18:47;13.02;;;4.00;;
52948;SDS011;38812;50.942;3.644;2023-05-07T04:21:16;11.93;;;4.65;;
52948;SDS011;38812;50.942;3.644;2023-05-07T04:23:42;15.25;;;4.15;;
52948;SDS011;38812;50.942;3.644;2023-05-07T04:26:08;8.35;;;4.00;;
52948;SDS011;38812;50.942;3.644;2023-05-07T04:28:34;16.50;;;4.63;;
52948;SDS011;38812;50.942;3.644;2023-05-07T04:30:59;12.65;;;4.57;;
52948;SDS011;38812;50.942;3.644;2023-05-07T04:33:25;9.35;;;4.95;;
52948;SDS011;38812;50.942;3.644;2023-05-07T04:35:50;11.50;;;4.75;;
52948;SDS011;38812;50.942;3.644;2023-05-07T04:38:15;10.95;;;4.43;;
52948;SDS011;38812;50.942;3.644;2023-05-07T04:40:41;13.27;;;4.68;;
52948;SDS011;38812;50.942;3.644;2023-05-07T04:43:07;11.43;;;4.28;;
52948;SDS011;38812;50.942;3.644;2023-05-07T04:45:34;13.93;;;4.28;;
52948;SDS011;38812;50.942;3.644;2023-05-07T04:48:00;13.20;;;4.93;;
52948;SDS011;38812;50.942;3.644;2023-05-07T04:50:25;11.10;;;4.82;;
52948;SDS011;38812;50.942;3.644;2023-05-07T04:52:51;16.63;;;5.43;;
52948;SDS011;38812;50.942;3.644;2023-05-07T04:55:16;7.80;;;5.30;;
52948;SDS011;38812;50.942;3.644;2023-05-07T04:57:42;16.17;;;5.70;;
52948;SDS011;38812;50.942;3.644;2023-05-07T05:00:07;9.98;;;4.53;;
52948;SDS011;38812;50.942;3.644;2023-05-07T05:02:34;10.63;;;5.28;;
52948;SDS011;38812;50.942;3.644;2023-05-07T05:05:00;17.02;;;5.60;;
52948;SDS011;38812;50.942;3.644;2023-05-07T05:07:26;13.68;;;5.47;;
52948;SDS011;38812;50.942;3.644;2023-05-07T05:09:52;17.52;;;6.63;;
52948;SDS011;38812;50.942;3.644;2023-05-07T05:12:17;19.77;;;6.43;;
52948;SDS011;38812;50.942;3.644;2023-05-07T05:14:43;19.92;;;5.85;;
52948;SDS011;38812;50.942;3.644;2023-05-07T05:17:08;17.00;;;5.95;;
52948;SDS011;38812;50.942;3.644;2023-05-07T05:19:33;16.38;;;5.45;;
52948;SDS011;38812;50.942;3.644;2023-05-07T05:21:59;12.57;;;4.90;;
52948;SDS011;38812;50.942;3.644;2023-05-07T05:24:26;14.18;;;5.57;;
52948;SDS011;38812;50.942;3.644;2023-05-07T05:26:52;14.88;;;5.22;;
52948;SDS011;38812;50.942;3.644;2023-05-07T05:29:19;22.42;;;6.00;;
52948;SDS011;38812;50.942;3.644;2023-05-07T05:31:44;16.55;;;4.95;;
52948;SDS011;38812;50.942;3.644;2023-05-07T05:34:10;21.73;;;5.60;;
52948;SDS011;38812;50.942;3.644;2023-05-07T05:36:35;17.20;;;6.20;;
52948;SDS011;38812;50.942;3.644;2023-05-07T05:39:01;15.05;;;6.03;;
52948;SDS011;38812;50.942;3.644;2023-05-07T05:41:26;11.38;;;5.93;;
52948;SDS011;38812;50.942;3.644;2023-05-07T05:43:51;17.80;;;5.78;;
52948;SDS011;38812;50.942;3.644;2023-05-07T05:46:17;16.35;;;5.63;;
52948;SDS011;38812;50.942;3.644;2023-05-07T05:48:42;16.70;;;5.30;;
52948;SDS011;38812;50.942;3.644;2023-05-07T05:51:07;11.30;;;5.30;;
52948;SDS011;38812;50.942;3.644;2023-05-07T05:53:33;15.57;;;5.70;;
52948;SDS011;38812;50.942;3.644;2023-05-07T05:55:58;10.90;;;5.20;;
52948;SDS011;38812;50.942;3.644;2023-05-07T05:58:24;16.48;;;5.93;;
52948;SDS011;38812;50.942;3.644;2023-05-07T06:00:49;11.35;;;6.43;;
52948;SDS011;38812;50.942;3.644;2023-05-07T06:03:17;9.40;;;5.50;;
52948;SDS011;38812;50.942;3.644;2023-05-07T06:05:42;15.38;;;5.68;;
52948;SDS011;38812;50.942;3.644;2023-05-07T06:08:08;10.43;;;5.88;;
52948;SDS011;38812;50.942;3.644;2023-05-07T06:10:33;10.98;;;5.32;;
52948;SDS011;38812;50.942;3.644;2023-05-07T06:12:58;16.23;;;6.13;;
52948;SDS011;38812;50.942;3.644;2023-05-07T06:15:24;20.98;;;5.30;;
52948;SDS011;38812;50.942;3.644;2023-05-07T06:17:49;15.38;;;6.13;;
52948;SDS011;38812;50.942;3.644;2023-05-07T06:20:15;11.68;;;6.10;;
52948;SDS011;38812;50.942;3.644;2023-05-07T06:22:40;14.70;;;5.50;;
52948;SDS011;38812;50.942;3.644;2023-05-07T06:25:05;9.45;;;4.97;;
52948;SDS011;38812;50.942;3.644;2023-05-07T06:27:31;14.18;;;5.50;;
52948;SDS011;38812;50.942;3.644;2023-05-07T06:29:57;16.83;;;5.45;;
52948;SDS011;38812;50.942;3.644;2023-05-07T06:32:22;11.38;;;5.88;;
52948;SDS011;38812;50.942;3.644;2023-05-07T06:34:47;20.08;;;6.40;;
52948;SDS011;38812;50.942;3.644;2023-05-07T06:37:13;13.13;;;6.15;;
52948;SDS011;38812;50.942;3.644;2023-05-07T06:39:38;13.18;;;6.82;;
52948;SDS011;38812;50.942;3.644;2023-05-07T06:42:04;20.70;;;7.47;;
52948;SDS011;38812;50.942;3.644;2023-05-07T06:44:30;17.90;;;7.47;;
52948;SDS011;38812;50.942;3.644;2023-05-07T06:46:56;15.07;;;6.75;;
52948;SDS011;38812;50.942;3.644;2023-05-07T06:49:22;15.18;;;6.82;;
52948;SDS011;38812;50.942;3.644;2023-05-07T06:51:47;11.40;;;7.15;;
52948;SDS011;38812;50.942;3.644;2023-05-07T06:54:13;18.17;;;7.13;;
52948;SDS011;38812;50.942;3.644;2023-05-07T06:56:38;11.15;;;6.85;;
52948;SDS011;38812;50.942;3.644;2023-05-07T06:59:03;11.52;;;6.30;;
52948;SDS011;38812;50.942;3.644;2023-05-07T07:01:29;13.27;;;6.57;;
52948;SDS011;38812;50.942;3.644;2023-05-07T07:03:55;13.75;;;5.60;;
52948;SDS011;38812;50.942;3.644;2023-05-07T07:06:20;14.48;;;6.35;;
52948;SDS011;38812;50.942;3.644;2023-05-07T07:08:45;12.43;;;5.40;;
52948;SDS011;38812;50.942;3.644;2023-05-07T07:11:11;11.63;;;5.70;;
52948;SDS011;38812;50.942;3.644;2023-05-07T07:13:36;13.75;;;5.28;;
52948;SDS011;38812;50.942;3.644;2023-05-07T07:16:02;10.57;;;5.85;;
52948;SDS011;38812;50.942;3.644;2023-05-07T07:18:28;11.10;;;6.07;;
52948;SDS011;38812;50.942;3.644;2023-05-07T07:20:53;13.95;;;6.03;;
52948;SDS011;38812;50.942;3.644;2023-05-07T07:23:19;13.70;;;5.28;;
52948;SDS011;38812;50.942;3.644;2023-05-07T07:25:44;11.57;;;4.78;;
52948;SDS011;38812;50.942;3.644;2023-05-07T07:28:09;32.65;;;5.78;;
52948;SDS011;38812;50.942;3.644;2023-05-07T07:30:35;15.02;;;4.68;;
52948;SDS011;38812;50.942;3.644;2023-05-07T07:33:01;8.07;;;4.60;;
52948;SDS011;38812;50.942;3.644;2023-05-07T07:35:34;9.98;;;5.30;;
52948;SDS011;38812;50.942;3.644;2023-05-07T07:37:59;15.10;;;4.03;;
52948;SDS011;38812;50.942;3.644;2023-05-07T07:40:25;11.60;;;4.10;;
52948;SDS011;38812;50.942;3.644;2023-05-07T07:42:51;10.55;;;4.40;;
52948;SDS011;38812;50.942;3.644;2023-05-07T07:45:16;9.65;;;4.50;;
52948;SDS011;38812;50.942;3.644;2023-05-07T07:47:42;9.40;;;5.22;;
52948;SDS011;38812;50.942;3.644;2023-05-07T07:50:07;10.07;;;5.22;;
52948;SDS011;38812;50.942;3.644;2023-05-07T07:52:33;16.65;;;5.57;;
52948;SDS011;38812;50.942;3.644;2023-05-07T07:54:59;11.15;;;5.53;;
52948;SDS011;38812;50.942;3.644;2023-05-07T07:57:25;12.35;;;5.85;;
52948;SDS011;38812;50.942;3.644;2023-05-07T07:59:50;9.02;;;4.60;;
52948;SDS011;38812;50.942;3.644;2023-05-07T08:02:16;11.18;;;5.13;;
52948;SDS011;38812;50.942;3.644;2023-05-07T08:04:42;11.65;;;5.28;;
52948;SDS011;38812;50.942;3.644;2023-05-07T08:07:10;12.70;;;5.50;;
52948;SDS011;38812;50.942;3.644;2023-05-07T08:09:39;11.13;;;4.90;;
52948;SDS011;38812;50.942;3.644;2023-05-07T08:12:05;8.13;;;4.40;;
52948;SDS011;38812;50.942;3.644;2023-05-07T08:14:31;6.68;;;4.72;;
52948;SDS011;38812;50.942;3.644;2023-05-07T08:16:56;8.07;;;4.78;;
52948;SDS011;38812;50.942;3.644;2023-05-07T08:19:22;11.82;;;4.50;;
52948;SDS011;38812;50.942;3.644;2023-05-07T08:21:47;6.78;;;4.57;;
52948;SDS011;38812;50.942;3.644;2023-05-07T08:24:13;9.57;;;4.72;;
52948;SDS011;38812;50.942;3.644;2023-05-07T08:26:39;13.30;;;4.88;;
52948;SDS011;38812;50.942;3.644;2023-05-07T08:29:05;15.35;;;5.03;;
52948;SDS011;38812;50.942;3.644;2023-05-07T08:31:30;10.70;;;5.07;;
52948;SDS011;38812;50.942;3.644;2023-05-07T08:33:57;11.25;;;5.45;;
52948;SDS011;38812;50.942;3.644;2023-05-07T08:36:23;11.77;;;5.18;;
52948;SDS011;38812;50.942;3.644;2023-05-07T08:38:48;7.63;;;5.43;;
52948;SDS011;38812;50.942;3.644;2023-05-07T08:41:14;11.15;;;5.05;;
52948;SDS011;38812;50.942;3.644;2023-05-07T08:43:40;11.02;;;5.35;;
52948;SDS011;38812;50.942;3.644;2023-05-07T08:46:06;11.13;;;4.82;;
52948;SDS011;38812;50.942;3.644;2023-05-07T08:48:34;9.93;;;4.70;;
52948;SDS011;38812;50.942;3.644;2023-05-07T08:51:00;12.23;;;5.00;;
52948;SDS011;38812;50.942;3.644;2023-05-07T08:53:26;9.60;;;4.60;;
52948;SDS011;38812;50.942;3.644;2023-05-07T08:55:51;11.00;;;5.20;;
52948;SDS011;38812;50.942;3.644;2023-05-07T08:58:18;13.25;;;4.43;;
52948;SDS011;38812;50.942;3.644;2023-05-07T09:00:43;11.95;;;4.47;;
52948;SDS011;38812;50.942;3.644;2023-05-07T09:03:09;9.73;;;4.47;;
52948;SDS011;38812;50.942;3.644;2023-05-07T09:05:37;7.93;;;3.95;;
52948;SDS011;38812;50.942;3.644;2023-05-07T09:08:02;8.98;;;4.13;;
52948;SDS011;38812;50.942;3.644;2023-05-07T09:10:29;8.63;;;4.05;;
52948;SDS011;38812;50.942;3.644;2023-05-07T09:12:54;9.38;;;2.88;;
52948;SDS011;38812;50.942;3.644;2023-05-07T09:15:20;9.00;;;3.13;;
52948;SDS011;38812;50.942;3.644;2023-05-07T09:17:45;7.32;;;3.35;;
52948;SDS011;38812;50.942;3.644;2023-05-07T09:20:11;5.03;;;2.85;;
52948;SDS011;38812;50.942;3.644;2023-05-07T09:22:37;9.27;;;5.40;;
52948;SDS011;38812;50.942;3.644;2023-05-07T09:25:03;12.63;;;3.40;;
52948;SDS011;38812;50.942;3.644;2023-05-07T09:27:30;6.00;;;2.88;;
52948;SDS011;38812;50.942;3.644;2023-05-07T09:29:55;6.07;;;2.53;;
52948;SDS011;38812;50.942;3.644;2023-05-07T09:32:21;9.05;;;3.30;;
52948;SDS011;38812;50.942;3.644;2023-05-07T09:34:46;9.63;;;3.60;;
52948;SDS011;38812;50.942;3.644;2023-05-07T09:37:12;10.80;;;3.22;;
52948;SDS011;38812;50.942;3.644;2023-05-07T09:39:42;7.55;;;2.90;;
52948;SDS011;38812;50.942;3.644;2023-05-07T09:42:12;5.35;;;2.30;;
52948;SDS011;38812;50.942;3.644;2023-05-07T09:44:39;7.55;;;2.63;;
52948;SDS011;38812;50.942;3.644;2023-05-07T09:47:05;4.00;;;2.35;;
52948;SDS011;38812;50.942;3.644;2023-05-07T09:49:33;5.68;;;2.55;;
52948;SDS011;38812;50.942;3.644;2023-05-07T09:52:01;6.47;;;2.13;;
52948;SDS011;38812;50.942;3.644;2023-05-07T09:54:28;5.38;;;1.90;;
52948;SDS011;38812;50.942;3.644;2023-05-07T09:56:54;5.80;;;2.13;;
52948;SDS011;38812;50.942;3.644;2023-05-07T09:59:20;8.55;;;2.35;;
52948;SDS011;38812;50.942;3.644;2023-05-07T10:01:46;9.25;;;2.38;;
52948;SDS011;38812;50.942;3.644;2023-05-07T10:04:13;8.52;;;2.53;;
52948;SDS011;38812;50.942;3.644;2023-05-07T10:06:39;9.02;;;2.72;;
52948;SDS011;38812;50.942;3.644;2023-05-07T10:09:06;7.63;;;2.10;;
52948;SDS011;38812;50.942;3.644;2023-05-07T10:11:34;3.67;;;2.22;;
52948;SDS011;38812;50.942;3.644;2023-05-07T10:14:01;8.18;;;2.20;;
52948;SDS011;38812;50.942;3.644;2023-05-07T10:16:36;8.10;;;2.35;;
52948;SDS011;38812;50.942;3.644;2023-05-07T10:19:05;5.18;;;2.58;;
52948;SDS011;38812;50.942;3.644;2023-05-07T10:21:34;4.93;;;2.80;;
52948;SDS011;38812;50.942;3.644;2023-05-07T10:24:05;6.60;;;2.63;;
52948;SDS011;38812;50.942;3.644;2023-05-07T10:26:39;10.85;;;2.60;;
52948;SDS011;38812;50.942;3.644;2023-05-07T10:29:11;6.18;;;2.35;;
52948;SDS011;38812;50.942;3.644;2023-05-07T10:34:15;3.35;;;1.90;;
52948;SDS011;38812;50.942;3.644;2023-05-07T10:36:46;10.32;;;2.15;;
52948;SDS011;38812;50.942;3.644;2023-05-07T10:39:12;2.85;;;1.58;;
52948;SDS011;38812;50.942;3.644;2023-05-07T10:41:38;5.20;;;2.53;;
52948;SDS011;38812;50.942;3.644;2023-05-07T10:44:04;6.18;;;2.30;;
52948;SDS011;38812;50.942;3.644;2023-05-07T10:46:29;5.47;;;2.10;;
52948;SDS011;38812;50.942;3.644;2023-05-07T10:51:27;4.05;;;2.08;;
52948;SDS011;38812;50.942;3.644;2023-05-07T10:56:40;8.30;;;2.47;;
52948;SDS011;38812;50.942;3.644;2023-05-07T11:01:54;3.63;;;2.00;;
52948;SDS011;38812;50.942;3.644;2023-05-07T11:04:39;4.13;;;2.00;;
52948;SDS011;38812;50.942;3.644;2023-05-07T11:12:16;6.10;;;2.20;;
52948;SDS011;38812;50.942;3.644;2023-05-07T11:15:00;6.63;;;2.55;;
52948;SDS011;38812;50.942;3.644;2023-05-07T11:17:27;5.47;;;2.40;;
52948;SDS011;38812;50.942;3.644;2023-05-07T11:19:56;4.45;;;2.90;;
52948;SDS011;38812;50.942;3.644;2023-05-07T11:24:57;5.38;;;2.40;;
52948;SDS011;38812;50.942;3.644;2023-05-07T11:27:24;6.20;;;2.90;;
52948;SDS011;38812;50.942;3.644;2023-05-07T11:29:51;4.68;;;2.83;;
52948;SDS011;38812;50.942;3.644;2023-05-07T11:32:22;3.65;;;2.30;;
52948;SDS011;38812;50.942;3.644;2023-05-07T11:34:51;4.10;;;2.45;;
52948;SDS011;38812;50.942;3.644;2023-05-07T11:37:17;4.28;;;2.10;;
52948;SDS011;38812;50.942;3.644;2023-05-07T11:39:44;4.45;;;2.35;;
52948;SDS011;38812;50.942;3.644;2023-05-07T11:44:54;4.90;;;2.15;;
52948;SDS011;38812;50.942;3.644;2023-05-07T11:47:20;4.20;;;2.20;;
52948;SDS011;38812;50.942;3.644;2023-05-07T11:49:48;6.55;;;2.72;;
52948;SDS011;38812;50.942;3.644;2023-05-07T11:52:15;5.32;;;2.50;;
52948;SDS011;38812;50.942;3.644;2023-05-07T11:54:48;3.65;;;2.08;;
52948;SDS011;38812;50.942;3.644;2023-05-07T11:57:17;7.45;;;2.78;;
52948;SDS011;38812;50.942;3.644;2023-05-07T11:59:43;5.75;;;2.97;;
52948;SDS011;38812;50.942;3.644;2023-05-07T12:02:09;4.40;;;2.75;;
52948;SDS011;38812;50.942;3.644;2023-05-07T12:04:35;6.70;;;3.22;;
52948;SDS011;38812;50.942;3.644;2023-05-07T12:07:00;4.75;;;3.28;;
52948;SDS011;38812;50.942;3.644;2023-05-07T12:09:26;3.95;;;2.58;;
52948;SDS011;38812;50.942;3.644;2023-05-07T12:11:51;5.65;;;3.00;;
52948;SDS011;38812;50.942;3.644;2023-05-07T12:14:17;6.53;;;3.40;;
52948;SDS011;38812;50.942;3.644;2023-05-07T12:16:43;4.80;;;3.20;;
52948;SDS011;38812;50.942;3.644;2023-05-07T12:19:10;3.60;;;2.28;;
52948;SDS011;38812;50.942;3.644;2023-05-07T12:21:39;3.63;;;2.58;;
52948;SDS011;38812;50.942;3.644;2023-05-07T12:24:05;4.38;;;2.90;;
52948;SDS011;38812;50.942;3.644;2023-05-07T12:26:30;5.85;;;3.33;;
52948;SDS011;38812;50.942;3.644;2023-05-07T12:28:59;5.75;;;2.33;;
52948;SDS011;38812;50.942;3.644;2023-05-07T12:31:28;6.70;;;2.10;;
52948;SDS011;38812;50.942;3.644;2023-05-07T12:33:53;6.22;;;2.28;;
52948;SDS011;38812;50.942;3.644;2023-05-07T12:36:19;3.33;;;1.90;;
52948;SDS011;38812;50.942;3.644;2023-05-07T12:38:46;4.75;;;2.38;;
52948;SDS011;38812;50.942;3.644;2023-05-07T12:41:15;3.97;;;2.70;;
52948;SDS011;38812;50.942;3.644;2023-05-07T12:43:43;5.45;;;2.67;;
52948;SDS011;38812;50.942;3.644;2023-05-07T12:46:10;4.82;;;2.63;;
52948;SDS011;38812;50.942;3.644;2023-05-07T12:48:38;7.50;;;3.03;;
52948;SDS011;38812;50.942;3.644;2023-05-07T12:51:08;4.97;;;2.65;;
52948;SDS011;38812;50.942;3.644;2023-05-07T12:53:39;5.50;;;2.25;;
52948;SDS011;38812;50.942;3.644;2023-05-07T12:56:05;4.50;;;2.30;;
52948;SDS011;38812;50.942;3.644;2023-05-07T12:58:33;5.60;;;2.35;;
52948;SDS011;38812;50.942;3.644;2023-05-07T13:01:00;4.40;;;2.15;;
52948;SDS011;38812;50.942;3.644;2023-05-07T13:03:38;5.68;;;2.30;;
52948;SDS011;38812;50.942;3.644;2023-05-07T13:06:07;8.43;;;2.53;;
52948;SDS011;38812;50.942;3.644;2023-05-07T13:08:41;4.43;;;2.75;;
52948;SDS011;38812;50.942;3.644;2023-05-07T13:11:10;6.85;;;2.33;;
52948;SDS011;38812;50.942;3.644;2023-05-07T13:13:37;6.47;;;2.50;;
52948;SDS011;38812;50.942;3.644;2023-05-07T13:16:05;5.18;;;2.30;;
52948;SDS011;38812;50.942;3.644;2023-05-07T13:18:32;7.40;;;2.22;;
52948;SDS011;38812;50.942;3.644;2023-05-07T13:20:58;4.00;;;2.38;;
52948;SDS011;38812;50.942;3.644;2023-05-07T13:23:25;6.05;;;2.63;;
52948;SDS011;38812;50.942;3.644;2023-05-07T13:25:50;4.70;;;2.58;;
52948;SDS011;38812;50.942;3.644;2023-05-07T13:28:18;4.20;;;2.20;;
52948;SDS011;38812;50.942;3.644;2023-05-07T13:30:45;4.03;;;2.08;;
52948;SDS011;38812;50.942;3.644;2023-05-07T13:33:10;4.65;;;2.08;;
52948;SDS011;38812;50.942;3.644;2023-05-07T13:35:36;5.97;;;2.30;;
52948;SDS011;38812;50.942;3.644;2023-05-07T13:38:01;3.88;;;2.67;;
52948;SDS011;38812;50.942;3.644;2023-05-07T13:40:27;2.72;;;1.80;;
52948;SDS011;38812;50.942;3.644;2023-05-07T13:42:53;5.50;;;2.13;;
52948;SDS011;38812;50.942;3.644;2023-05-07T13:45:18;3.90;;;2.00;;
52948;SDS011;38812;50.942;3.644;2023-05-07T13:47:44;4.18;;;1.73;;
52948;SDS011;38812;50.942;3.644;2023-05-07T13:50:10;1.85;;;1.50;;
52948;SDS011;38812;50.942;3.644;2023-05-07T13:52:40;4.68;;;1.85;;
52948;SDS011;38812;50.942;3.644;2023-05-07T13:55:07;2.70;;;1.83;;
52948;SDS011;38812;50.942;3.644;2023-05-07T13:57:32;5.88;;;2.20;;
52948;SDS011;38812;50.942;3.644;2023-05-07T13:59:58;4.93;;;1.98;;
52948;SDS011;38812;50.942;3.644;2023-05-07T14:02:23;4.90;;;1.98;;
52948;SDS011;38812;50.942;3.644;2023-05-07T14:04:48;8.40;;;2.42;;
52948;SDS011;38812;50.942;3.644;2023-05-07T14:07:14;3.35;;;1.77;;
52948;SDS011;38812;50.942;3.644;2023-05-07T14:09:40;5.65;;;2.90;;
52948;SDS011;38812;50.942;3.644;2023-05-07T14:12:05;2.88;;;1.55;;
52948;SDS011;38812;50.942;3.644;2023-05-07T14:14:31;4.60;;;1.90;;
52948;SDS011;38812;50.942;3.644;2023-05-07T14:16:56;4.07;;;1.83;;
52948;SDS011;38812;50.942;3.644;2023-05-07T14:19:22;6.00;;;2.20;;
52948;SDS011;38812;50.942;3.644;2023-05-07T14:21:50;8.50;;;3.28;;
52948;SDS011;38812;50.942;3.644;2023-05-07T14:24:15;8.38;;;2.90;;
52948;SDS011;38812;50.942;3.644;2023-05-07T14:26:41;4.20;;;2.63;;
52948;SDS011;38812;50.942;3.644;2023-05-07T14:29:06;7.95;;;2.72;;
52948;SDS011;38812;50.942;3.644;2023-05-07T14:31:31;5.05;;;3.25;;
52948;SDS011;38812;50.942;3.644;2023-05-07T14:33:58;7.50;;;3.80;;
52948;SDS011;38812;50.942;3.644;2023-05-07T14:36:24;8.27;;;3.85;;
52948;SDS011;38812;50.942;3.644;2023-05-07T14:38:51;7.07;;;3.72;;
52948;SDS011;38812;50.942;3.644;2023-05-07T14:41:20;6.15;;;3.53;;
52948;SDS011;38812;50.942;3.644;2023-05-07T14:43:46;6.07;;;4.47;;
52948;SDS011;38812;50.942;3.644;2023-05-07T14:46:15;7.05;;;4.85;;
52948;SDS011;38812;50.942;3.644;2023-05-07T14:48:44;9.45;;;5.45;;
52948;SDS011;38812;50.942;3.644;2023-05-07T14:51:11;10.52;;;5.28;;
52948;SDS011;38812;50.942;3.644;2023-05-07T14:53:37;9.27;;;5.90;;
52948;SDS011;38812;50.942;3.644;2023-05-07T14:56:03;9.85;;;6.15;;
52948;SDS011;38812;50.942;3.644;2023-05-07T14:58:29;10.55;;;5.80;;